createdAt,value
2023-06-17T00:00:55.492Z,42.16
2023-06-17T00:01:55.447Z,41.36
2023-06-17T00:02:55.492Z,41.05
2023-06-17T00:03:55.373Z,41.27
2023-06-17T00:04:55.321Z,42.14
2023-06-17T00:05:55.286Z,41.21
2023-06-17T00:06:55.269Z,40.87
2023-06-17T00:07:55.220Z,40.68
2023-06-17T00:08:55.245Z,40.48
2023-06-17T00:09:55.142Z,40.77
2023-06-17T00:10:55.124Z,39.70
2023-06-17T00:11:55.086Z,40.32
2023-06-17T00:12:55.048Z,40.18
2023-06-17T00:13:55.005Z,39.91
2023-06-17T00:14:54.963Z,39.83
2023-06-17T00:15:54.919Z,40.99
2023-06-17T00:16:54.885Z,39.82
2023-06-17T00:17:54.888Z,40.00
2023-06-17T00:18:54.800Z,39.88
2023-06-17T00:19:54.763Z,38.68
2023-06-17T00:20:54.740Z,38.76
2023-06-17T00:21:54.685Z,38.84
2023-06-17T00:22:54.671Z,38.93
2023-06-17T00:23:54.615Z,39.73
2023-06-17T00:24:54.562Z,39.99
2023-06-17T00:25:54.534Z,39.46
2023-06-17T00:26:54.506Z,38.67
2023-06-17T00:27:54.450Z,38.52
2023-06-17T00:28:54.423Z,39.74
2023-06-17T00:29:54.355Z,39.11
2023-06-17T00:30:54.343Z,38.17
2023-06-17T00:31:54.285Z,38.26
2023-06-17T00:32:54.327Z,38.11
2023-06-17T00:33:54.202Z,38.46
2023-06-17T00:34:54.153Z,38.18
2023-06-17T00:35:55.982Z,37.70
2023-06-17T00:36:54.097Z,37.59
2023-06-17T00:37:54.061Z,37.15
2023-06-17T00:38:54.013Z,37.72
2023-06-17T00:39:53.973Z,37.34
2023-06-17T00:40:53.942Z,37.06
2023-06-17T00:41:53.898Z,36.70
2023-06-17T00:42:53.850Z,37.06
2023-06-17T00:43:53.808Z,37.52
2023-06-17T00:44:53.788Z,36.92
2023-06-17T00:45:53.765Z,36.62
2023-06-17T00:46:53.818Z,36.97
2023-06-17T00:47:53.749Z,35.53
2023-06-17T00:48:53.702Z,36.33
2023-06-17T00:49:53.691Z,36.17
2023-06-17T00:50:53.691Z,36.19
2023-06-17T00:52:10.048Z,36.10
2023-06-17T00:52:54.728Z,35.93
2023-06-17T00:53:53.602Z,35.93
2023-06-17T00:54:53.556Z,35.74
2023-06-17T00:55:53.519Z,36.35
2023-06-17T00:56:53.485Z,35.18
2023-06-17T00:57:53.445Z,35.48
2023-06-17T00:58:53.417Z,35.55
2023-06-17T00:59:53.379Z,35.38
2023-06-17T01:00:53.356Z,35.32
2023-06-17T01:01:53.311Z,35.08
2023-06-17T01:02:53.320Z,36.14
2023-06-17T01:03:53.327Z,35.85
2023-06-17T01:04:53.190Z,36.17
2023-06-17T01:05:53.147Z,35.89
2023-06-17T01:06:53.127Z,36.16
2023-06-17T01:07:53.068Z,35.79
2023-06-17T01:08:53.041Z,35.71
2023-06-17T01:09:53.005Z,35.71
2023-06-17T01:10:52.976Z,35.02
2023-06-17T01:11:52.933Z,35.05
2023-06-17T01:12:52.887Z,34.79
2023-06-17T01:13:52.846Z,34.82
2023-06-17T01:14:52.803Z,34.96
2023-06-17T01:15:52.771Z,34.99
2023-06-17T01:16:52.740Z,34.98
2023-06-17T01:17:52.752Z,34.42
2023-06-17T01:18:52.676Z,35.11
2023-06-17T01:19:52.642Z,35.09
2023-06-17T01:20:52.610Z,34.99
2023-06-17T01:21:52.575Z,34.01
2023-06-17T01:22:52.548Z,33.99
2023-06-17T01:23:52.576Z,34.38
2023-06-17T01:24:52.504Z,34.59
2023-06-17T01:25:52.443Z,34.67
2023-06-17T01:26:52.415Z,34.39
2023-06-17T01:27:52.389Z,33.89
2023-06-17T01:28:52.368Z,33.75
2023-06-17T01:29:52.317Z,33.85
2023-06-17T01:30:52.286Z,33.32
2023-06-17T01:31:52.262Z,33.67
2023-06-17T01:32:52.307Z,34.21
2023-06-17T01:33:52.200Z,33.61
2023-06-17T01:34:52.197Z,32.63
2023-06-17T01:35:52.146Z,33.04
2023-06-17T01:36:52.097Z,33.23
2023-06-17T01:37:52.092Z,33.42
2023-06-17T01:38:52.069Z,32.92
2023-06-17T01:39:52.070Z,31.66
2023-06-17T01:40:52.040Z,33.27
2023-06-17T01:41:52.041Z,32.27
2023-06-17T01:42:52.056Z,32.29
2023-06-17T01:43:52.029Z,32.81
2023-06-17T01:44:52.015Z,32.76
2023-06-17T01:45:52.034Z,31.92
2023-06-17T01:46:52.015Z,32.28
2023-06-17T01:47:52.033Z,31.51
2023-06-17T01:48:51.973Z,32.32
2023-06-17T01:49:51.969Z,30.75
2023-06-17T01:50:51.967Z,31.36
2023-06-17T01:51:51.949Z,31.37
2023-06-17T01:52:51.967Z,31.65
2023-06-17T01:53:51.983Z,31.55
2023-06-17T01:54:51.928Z,31.52
2023-06-17T01:55:51.913Z,30.99
2023-06-17T01:56:51.906Z,30.97
2023-06-17T01:57:51.931Z,31.57
2023-06-17T01:58:51.884Z,31.34
2023-06-17T01:59:51.888Z,30.72
2023-06-17T02:00:51.871Z,30.76
2023-06-17T02:01:51.866Z,30.54
2023-06-17T02:02:51.941Z,30.00
2023-06-17T02:03:51.886Z,30.81
2023-06-17T02:04:51.856Z,30.08
2023-06-17T02:05:51.834Z,29.60
2023-06-17T02:06:51.834Z,30.30
2023-06-17T02:07:51.838Z,30.25
2023-06-17T02:08:51.827Z,29.27
2023-06-17T02:09:51.836Z,30.36
2023-06-17T02:10:51.824Z,30.15
2023-06-17T02:11:51.797Z,29.91
2023-06-17T02:12:51.812Z,28.96
2023-06-17T02:13:51.778Z,29.11
2023-06-17T02:14:51.785Z,29.74
2023-06-17T02:15:51.776Z,29.09
2023-06-17T02:16:51.768Z,28.82
2023-06-17T02:17:51.808Z,30.01
2023-06-17T02:18:51.740Z,29.48
2023-06-17T02:19:51.745Z,29.23
2023-06-17T02:20:51.730Z,28.83
2023-06-17T02:21:51.738Z,28.67
2023-06-17T02:22:51.736Z,28.95
2023-06-17T02:23:51.750Z,28.77
2023-06-17T02:24:51.719Z,28.26
2023-06-17T02:25:51.701Z,28.56
2023-06-17T02:26:51.698Z,28.67
2023-06-17T02:27:51.697Z,28.60
2023-06-17T02:28:51.726Z,28.53
2023-06-17T02:29:51.681Z,28.29
2023-06-17T02:30:51.768Z,27.92
2023-06-17T02:31:51.686Z,27.74
2023-06-17T02:32:51.757Z,27.83
2023-06-17T02:33:51.711Z,28.16
2023-06-17T02:34:51.704Z,27.68
2023-06-17T02:35:51.681Z,27.37
2023-06-17T02:36:51.687Z,27.55
2023-06-17T02:37:51.700Z,26.75
2023-06-17T02:38:51.693Z,27.39
2023-06-17T02:39:51.678Z,27.51
2023-06-17T02:40:51.713Z,27.46
2023-06-17T02:41:51.678Z,27.45
2023-06-17T02:42:51.691Z,27.47
2023-06-17T02:43:51.674Z,26.81
2023-06-17T02:44:51.683Z,26.89
2023-06-17T02:45:51.690Z,27.14
2023-06-17T02:46:51.769Z,27.06
2023-06-17T02:47:51.754Z,26.24
2023-06-17T02:48:51.714Z,26.40
2023-06-17T02:49:51.707Z,26.11
2023-06-17T02:50:51.697Z,26.41
2023-06-17T02:51:51.693Z,27.02
2023-06-17T02:52:51.715Z,26.42
2023-06-17T02:53:51.683Z,25.74
2023-06-17T02:54:51.701Z,24.40
2023-06-17T02:55:51.713Z,22.43
2023-06-17T02:56:51.720Z,20.45
2023-06-17T02:57:51.720Z,18.26
2023-06-17T02:58:51.718Z,16.44
2023-06-17T02:59:51.721Z,15.12
2023-06-17T03:00:51.840Z,13.70
2023-06-17T03:01:51.744Z,12.50
2023-06-17T03:02:52.048Z,11.29
2023-06-17T03:03:51.786Z,9.98
2023-06-17T03:04:51.773Z,9.26
2023-06-17T03:05:51.790Z,8.39
2023-06-17T03:06:52.264Z,7.75
2023-06-17T03:07:51.817Z,7.05
2023-06-17T03:08:51.840Z,6.70
2023-06-17T03:09:51.864Z,6.21
2023-06-17T03:10:51.875Z,5.90
2023-06-17T03:11:51.898Z,5.41
2023-06-17T03:12:51.923Z,5.04
2023-06-17T03:13:51.942Z,5.02
2023-06-17T03:14:51.967Z,4.46
2023-06-17T03:15:52.027Z,4.27
2023-06-17T03:16:52.056Z,4.06
2023-06-17T03:17:52.127Z,3.83
2023-06-17T03:18:52.129Z,3.73
2023-06-17T03:19:52.162Z,3.45
2023-06-17T03:20:52.178Z,3.33
2023-06-17T03:21:52.216Z,3.32
2023-06-17T03:22:52.277Z,3.14
2023-06-17T03:23:52.324Z,2.97
2023-06-17T03:24:52.357Z,2.91
2023-06-17T03:25:52.382Z,2.79
2023-06-17T03:26:52.428Z,2.67
2023-06-17T03:27:52.460Z,2.60
2023-06-17T03:28:52.486Z,2.49
2023-06-17T03:29:52.512Z,2.46
2023-06-17T03:30:52.574Z,2.38
2023-06-17T03:31:52.636Z,2.39
2023-06-17T03:32:52.653Z,2.29
2023-06-17T03:33:52.646Z,2.29
2023-06-17T03:34:52.653Z,2.23
2023-06-17T03:35:52.660Z,2.21
2023-06-17T03:36:52.621Z,2.21
2023-06-17T03:37:52.614Z,2.15
2023-06-17T03:38:52.581Z,2.10
2023-06-17T03:39:52.571Z,2.11
2023-06-17T03:40:52.538Z,2.02
2023-06-17T03:41:52.514Z,1.96
2023-06-17T03:42:52.538Z,2.02
2023-06-17T03:43:52.488Z,1.95
2023-06-17T03:44:52.467Z,2.01
2023-06-17T03:45:52.433Z,1.94
2023-06-17T03:46:52.417Z,1.99
2023-06-17T03:47:52.464Z,1.91
2023-06-17T03:48:52.395Z,1.81
2023-06-17T03:49:52.395Z,1.88
2023-06-17T03:50:52.409Z,1.87
2023-06-17T03:51:52.419Z,1.82
2023-06-17T03:52:52.453Z,1.86
2023-06-17T03:53:52.435Z,1.84
2023-06-17T03:54:52.426Z,1.74
2023-06-17T03:55:52.484Z,1.77
2023-06-17T03:56:52.414Z,1.72
2023-06-17T03:57:52.402Z,1.64
2023-06-17T03:58:52.389Z,1.56
2023-06-17T03:59:52.361Z,1.57
2023-06-17T04:00:52.345Z,1.57
2023-06-17T04:01:52.330Z,1.62
2023-06-17T04:02:52.424Z,1.62
2023-06-17T04:03:52.504Z,1.61
2023-06-17T04:04:52.304Z,1.59
2023-06-17T04:05:52.298Z,1.55
2023-06-17T04:06:52.266Z,1.67
2023-06-17T04:07:52.264Z,1.67
2023-06-17T04:08:52.258Z,1.67
2023-06-17T04:10:05.904Z,1.56
2023-06-17T04:10:53.230Z,1.56
2023-06-17T04:11:52.193Z,1.56
2023-06-17T04:12:52.186Z,1.56
2023-06-17T04:13:52.176Z,1.62
2023-06-17T04:14:52.146Z,1.64
2023-06-17T04:15:52.118Z,1.56
2023-06-17T04:16:52.118Z,1.68
2023-06-17T04:17:52.151Z,1.59
2023-06-17T04:18:52.088Z,1.70
2023-06-17T04:19:52.078Z,1.62
2023-06-17T04:20:52.053Z,1.60
2023-06-17T04:21:52.026Z,1.68
2023-06-17T04:22:52.006Z,1.60
2023-06-17T04:23:52.016Z,1.53
2023-06-17T04:24:51.988Z,1.57
2023-06-17T04:25:51.962Z,1.52
2023-06-17T04:26:51.948Z,1.53
2023-06-17T04:27:51.925Z,1.56
2023-06-17T04:28:51.901Z,1.52
2023-06-17T04:29:51.893Z,1.53
2023-06-17T04:30:51.844Z,1.59
2023-06-17T04:31:51.810Z,1.56
2023-06-17T04:32:51.823Z,1.47
2023-06-17T04:33:51.795Z,1.51
2023-06-17T04:34:51.761Z,1.49
2023-06-17T04:35:51.738Z,1.46
2023-06-17T04:36:51.712Z,1.38
2023-06-17T04:37:51.697Z,1.47
2023-06-17T04:38:51.674Z,1.37
2023-06-17T04:39:51.650Z,1.43
2023-06-17T04:40:51.636Z,1.40
2023-06-17T04:41:51.613Z,1.43
2023-06-17T04:42:51.609Z,1.32
2023-06-17T04:43:51.590Z,1.39
2023-06-17T04:44:51.612Z,1.38
2023-06-17T04:45:51.596Z,1.36
2023-06-17T04:46:51.666Z,1.37
2023-06-17T04:47:51.651Z,1.32
2023-06-17T04:48:51.616Z,1.26
2023-06-17T04:49:51.606Z,1.31
2023-06-17T04:50:51.620Z,1.39
2023-06-17T04:51:51.625Z,1.31
2023-06-17T04:52:51.626Z,1.41
2023-06-17T04:53:51.642Z,1.41
2023-06-17T04:54:51.638Z,1.42
2023-06-17T04:55:51.644Z,1.44
2023-06-17T04:56:51.629Z,1.47
2023-06-17T04:57:51.647Z,1.49
2023-06-17T04:58:51.651Z,1.54
2023-06-17T04:59:51.645Z,1.56
2023-06-17T05:00:51.724Z,1.62
2023-06-17T05:01:51.637Z,1.62
2023-06-17T05:02:51.732Z,1.63
2023-06-17T05:03:51.705Z,1.60
2023-06-17T05:04:51.652Z,1.69
2023-06-17T05:05:51.653Z,1.60
2023-06-17T05:06:51.651Z,1.64
2023-06-17T05:07:51.669Z,1.59
2023-06-17T05:08:51.667Z,1.58
2023-06-17T05:09:51.681Z,1.61
2023-06-17T05:10:51.670Z,1.59
2023-06-17T05:11:51.676Z,1.70
2023-06-17T05:12:51.701Z,1.65
2023-06-17T05:13:51.688Z,1.60
2023-06-17T05:14:51.678Z,1.54
2023-06-17T05:15:51.702Z,1.61
2023-06-17T05:16:51.742Z,1.58
2023-06-17T05:17:51.762Z,1.59
2023-06-17T05:18:51.735Z,1.60
2023-06-17T05:19:51.745Z,1.69
2023-06-17T05:20:51.740Z,1.65
2023-06-17T05:21:51.765Z,1.67
2023-06-17T05:22:51.762Z,1.62
2023-06-17T05:23:51.809Z,1.72
2023-06-17T05:24:51.794Z,1.66
2023-06-17T05:25:51.832Z,1.63
2023-06-17T05:26:51.828Z,1.63
2023-06-17T05:27:51.856Z,1.66
2023-06-17T05:28:51.850Z,1.67
2023-06-17T05:29:51.864Z,1.66
2023-06-17T05:30:51.918Z,1.53
2023-06-17T05:31:51.877Z,1.52
2023-06-17T05:32:51.969Z,1.58
2023-06-17T05:33:51.908Z,1.50
2023-06-17T05:34:51.898Z,1.58
2023-06-17T05:35:51.914Z,1.53
2023-06-17T05:36:51.921Z,1.47
2023-06-17T05:37:51.944Z,1.53
2023-06-17T05:38:51.971Z,1.55
2023-06-17T05:39:51.973Z,1.59
2023-06-17T05:40:51.991Z,1.55
2023-06-17T05:41:52.010Z,1.47
2023-06-17T05:42:52.010Z,1.65
2023-06-17T05:43:52.042Z,1.66
2023-06-17T05:44:52.051Z,1.62
2023-06-17T05:45:52.069Z,1.71
2023-06-17T05:46:52.067Z,1.72
2023-06-17T05:47:52.099Z,1.73
2023-06-17T05:48:52.087Z,1.82
2023-06-17T05:49:52.093Z,1.75
2023-06-17T05:50:52.107Z,1.72
2023-06-17T05:51:52.130Z,1.74
2023-06-17T05:52:52.128Z,1.74
2023-06-17T05:53:52.164Z,1.81
2023-06-17T05:54:52.154Z,1.87
2023-06-17T05:55:52.181Z,1.88
2023-06-17T05:56:52.192Z,1.80
2023-06-17T05:57:52.203Z,1.83
2023-06-17T05:58:52.197Z,1.88
2023-06-17T05:59:52.219Z,1.76
2023-06-17T06:00:52.233Z,1.67
2023-06-17T06:01:52.329Z,1.77
2023-06-17T06:02:52.280Z,1.72
2023-06-17T06:03:52.314Z,1.72
2023-06-17T06:04:52.281Z,1.66
2023-06-17T06:05:52.301Z,1.80
2023-06-17T06:06:52.293Z,1.77
2023-06-17T06:07:52.317Z,1.71
2023-06-17T06:08:52.310Z,1.76
2023-06-17T06:09:52.348Z,1.73
2023-06-17T06:10:52.320Z,1.73
2023-06-17T06:11:52.338Z,1.70
2023-06-17T06:12:52.341Z,1.75
2023-06-17T06:13:52.348Z,1.70
2023-06-17T06:14:52.346Z,1.64
2023-06-17T06:15:52.410Z,1.63
2023-06-17T06:16:52.359Z,1.66
2023-06-17T06:17:52.374Z,1.62
2023-06-17T06:18:52.342Z,1.64
2023-06-17T06:19:52.436Z,1.57
2023-06-17T06:20:52.320Z,1.45
2023-06-17T06:21:52.325Z,1.56
2023-06-17T06:22:52.310Z,1.40
2023-06-17T06:23:52.341Z,1.39
2023-06-17T06:24:52.276Z,1.30
2023-06-17T06:25:52.249Z,1.30
2023-06-17T06:26:52.256Z,1.28
2023-06-17T06:27:52.222Z,1.25
2023-06-17T06:28:52.205Z,1.24
2023-06-17T06:29:52.189Z,1.15
2023-06-17T06:30:52.181Z,1.15
2023-06-17T06:31:52.173Z,1.08
2023-06-17T06:32:52.157Z,1.05
2023-06-17T06:33:52.129Z,0.96
2023-06-17T06:34:52.116Z,0.92
2023-06-17T06:35:52.098Z,0.88
2023-06-17T06:36:52.105Z,0.81
2023-06-17T06:37:52.067Z,0.76
2023-06-17T06:38:52.053Z,0.72
2023-06-17T06:39:52.032Z,0.70
2023-06-17T06:40:52.019Z,0.66
2023-06-17T06:41:52.001Z,0.64
2023-06-17T06:42:51.962Z,0.59
2023-06-17T06:43:51.960Z,0.53
2023-06-17T06:44:51.926Z,0.53
2023-06-17T06:45:51.961Z,0.50
2023-06-17T06:46:51.895Z,0.51
2023-06-17T06:47:51.973Z,0.52
2023-06-17T06:48:51.852Z,0.52
2023-06-17T06:49:51.822Z,0.50
2023-06-17T06:50:51.795Z,0.53
2023-06-17T06:51:51.789Z,0.50
2023-06-17T06:52:51.752Z,0.51
2023-06-17T06:53:51.752Z,0.50
2023-06-17T06:54:51.707Z,0.49
2023-06-17T06:55:51.704Z,0.49
2023-06-17T06:56:51.662Z,0.52
2023-06-17T06:57:51.681Z,0.50
2023-06-17T06:58:51.629Z,0.52
2023-06-17T06:59:52.644Z,0.50
2023-06-17T07:00:51.606Z,0.50
2023-06-17T07:01:51.547Z,0.51
2023-06-17T07:02:51.617Z,0.50
2023-06-17T07:03:51.505Z,0.50
2023-06-17T07:04:51.535Z,0.50
2023-06-17T07:05:51.479Z,0.50
2023-06-17T07:06:51.448Z,0.51
2023-06-17T07:07:51.438Z,0.51
2023-06-17T07:08:51.474Z,0.50
2023-06-17T07:09:51.521Z,0.51
2023-06-17T07:10:51.555Z,0.52
2023-06-17T07:11:51.602Z,0.51
2023-06-17T07:12:51.588Z,0.50
2023-06-17T07:13:51.633Z,0.51
2023-06-17T07:14:51.594Z,0.51
2023-06-17T07:15:51.571Z,0.51
2023-06-17T07:16:51.628Z,0.52
2023-06-17T07:17:51.700Z,0.51
2023-06-17T07:18:51.629Z,0.51
2023-06-17T07:19:51.645Z,0.50
2023-06-17T07:20:51.654Z,0.50
2023-06-17T07:21:51.714Z,0.52
2023-06-17T07:22:51.722Z,0.51
2023-06-17T07:23:51.755Z,0.51
2023-06-17T07:24:51.777Z,0.51
2023-06-17T07:25:53.022Z,0.50
2023-06-17T07:26:51.775Z,0.51
2023-06-17T07:27:51.754Z,0.51
2023-06-17T07:28:51.749Z,0.50
2023-06-17T07:29:51.728Z,0.52
2023-06-17T07:30:51.737Z,0.51
2023-06-17T07:31:51.679Z,0.51
2023-06-17T07:32:51.694Z,0.50
2023-06-17T07:33:57.865Z,0.50
2023-06-17T07:34:51.639Z,0.48
2023-06-17T07:35:51.630Z,0.48
2023-06-17T07:36:51.586Z,0.46
2023-06-17T07:37:51.578Z,0.46
2023-06-17T07:38:51.549Z,0.45
2023-06-17T07:39:51.545Z,0.50
2023-06-17T07:40:51.526Z,0.50
2023-06-17T07:41:51.494Z,0.52
2023-06-17T07:42:51.471Z,0.51
2023-06-17T07:43:51.520Z,0.51
2023-06-17T07:44:51.557Z,0.51
2023-06-17T07:45:51.619Z,0.51
2023-06-17T07:46:51.692Z,0.50
2023-06-17T07:47:51.698Z,0.51
2023-06-17T07:48:51.698Z,0.51
2023-06-17T07:49:51.742Z,0.50
2023-06-17T07:50:51.741Z,0.51
2023-06-17T07:51:51.769Z,0.51
2023-06-17T07:52:51.788Z,0.51
2023-06-17T07:53:51.809Z,0.50
2023-06-17T07:54:51.824Z,0.50
2023-06-17T07:55:51.845Z,0.50
2023-06-17T07:56:51.868Z,0.50
2023-06-17T07:57:51.893Z,0.50
2023-06-17T07:58:51.919Z,0.50
2023-06-17T07:59:51.951Z,0.51
2023-06-17T08:00:51.990Z,0.51
2023-06-17T08:01:52.074Z,0.50
2023-06-17T08:02:52.090Z,0.50
2023-06-17T08:03:52.116Z,0.50
2023-06-17T08:04:52.041Z,0.51
2023-06-17T08:05:52.083Z,0.50
2023-06-17T08:06:52.086Z,0.50
2023-06-17T08:07:52.206Z,0.51
2023-06-17T08:08:52.124Z,0.50
2023-06-17T08:09:52.135Z,0.50
2023-06-17T08:10:52.164Z,0.51
2023-06-17T08:11:52.185Z,0.50
2023-06-17T08:12:52.200Z,0.52
2023-06-17T08:13:52.214Z,0.50
2023-06-17T08:14:52.204Z,0.50
2023-06-17T08:15:52.234Z,0.50
2023-06-17T08:16:52.293Z,0.51
2023-06-17T08:17:52.258Z,0.51
2023-06-17T08:18:52.213Z,0.50
2023-06-17T08:19:52.223Z,0.48
2023-06-17T08:20:52.168Z,0.46
2023-06-17T08:21:52.131Z,0.45
2023-06-17T08:22:52.105Z,0.44
2023-06-17T08:23:52.156Z,0.53
2023-06-17T08:24:52.062Z,0.50
2023-06-17T08:25:52.049Z,0.50
2023-06-17T08:26:52.011Z,0.50
2023-06-17T08:27:52.148Z,0.51
2023-06-17T08:28:51.970Z,0.50
2023-06-17T08:29:51.949Z,0.56
2023-06-17T08:30:51.915Z,0.53
2023-06-17T08:31:51.927Z,0.50
2023-06-17T08:32:51.883Z,0.53
2023-06-17T08:33:51.846Z,0.56
2023-06-17T08:34:51.817Z,0.52
2023-06-17T08:35:51.795Z,0.53
2023-06-17T08:36:51.803Z,0.56
2023-06-17T08:37:51.793Z,0.52
2023-06-17T08:38:51.821Z,0.59
2023-06-17T08:39:51.799Z,0.66
2023-06-17T08:40:51.804Z,0.63
2023-06-17T08:41:51.816Z,0.57
2023-06-17T08:42:51.790Z,0.60
2023-06-17T08:43:51.814Z,0.61
2023-06-17T08:44:51.840Z,0.62
2023-06-17T08:45:51.883Z,0.64
2023-06-17T08:46:51.831Z,0.65
2023-06-17T08:47:51.882Z,0.76
2023-06-17T08:48:51.819Z,0.76
2023-06-17T08:49:51.826Z,0.72
2023-06-17T08:50:51.830Z,0.66
2023-06-17T08:51:51.837Z,0.60
2023-06-17T08:52:53.716Z,0.55
2023-06-17T08:53:51.819Z,0.58
2023-06-17T08:54:51.779Z,0.61
2023-06-17T08:55:51.774Z,0.64
2023-06-17T08:56:51.747Z,0.72
2023-06-17T08:57:51.720Z,0.75
2023-06-17T08:58:51.720Z,0.82
2023-06-17T08:59:51.687Z,0.90
2023-06-17T09:00:51.720Z,0.99
2023-06-17T09:01:51.625Z,1.06
2023-06-17T09:02:51.603Z,1.15
2023-06-17T09:03:51.574Z,1.33
2023-06-17T09:04:51.577Z,1.49
2023-06-17T09:05:51.517Z,1.73
2023-06-17T09:06:51.481Z,1.88
2023-06-17T09:07:51.460Z,2.08
2023-06-17T09:08:51.444Z,2.25
2023-06-17T09:09:51.395Z,2.62
2023-06-17T09:10:51.357Z,2.83
2023-06-17T09:11:52.665Z,3.07
2023-06-17T09:12:51.297Z,3.29
2023-06-17T09:13:51.346Z,3.52
2023-06-17T09:14:51.244Z,3.79
2023-06-17T09:15:51.217Z,4.14
2023-06-17T09:16:51.215Z,4.50
2023-06-17T09:17:51.202Z,4.99
2023-06-17T09:18:51.137Z,5.20
2023-06-17T09:19:51.091Z,5.88
2023-06-17T09:20:51.052Z,6.30
2023-06-17T09:21:51.019Z,6.72
2023-06-17T09:22:51.029Z,7.45
2023-06-17T09:23:51.066Z,7.95
2023-06-17T09:24:51.053Z,8.20
2023-06-17T09:25:51.062Z,8.91
2023-06-17T09:26:51.109Z,9.64
2023-06-17T09:28:08.325Z,10.14
2023-06-17T09:28:52.068Z,10.16
2023-06-17T09:29:51.021Z,10.36
2023-06-17T09:30:51.006Z,10.94
2023-06-17T09:31:50.964Z,10.23
2023-06-17T09:32:51.082Z,10.68
2023-06-17T09:33:50.892Z,11.63
2023-06-17T09:34:50.856Z,13.34
2023-06-17T09:35:50.800Z,16.81
2023-06-17T09:36:50.774Z,18.37
2023-06-17T09:38:02.463Z,18.76
2023-06-17T09:38:51.721Z,18.81
2023-06-17T09:39:50.689Z,19.05
2023-06-17T09:40:50.677Z,19.73
2023-06-17T09:41:50.624Z,21.04
2023-06-17T09:42:50.610Z,23.98
2023-06-17T09:43:50.568Z,24.90
2023-06-17T09:44:50.547Z,25.88
2023-06-17T09:45:50.498Z,25.95
2023-06-17T09:46:50.458Z,26.27
2023-06-17T09:47:50.472Z,27.40
2023-06-17T09:48:50.382Z,29.49
2023-06-17T09:49:50.329Z,32.95
2023-06-17T09:50:50.295Z,26.14
2023-06-17T09:51:50.277Z,27.23
2023-06-17T09:52:50.241Z,26.20
2023-06-17T09:53:50.216Z,27.56
2023-06-17T09:54:50.173Z,30.17
2023-06-17T09:55:50.144Z,26.31
2023-06-17T09:56:50.109Z,27.99
2023-06-17T09:57:50.083Z,31.30
2023-06-17T09:58:50.058Z,37.49
2023-06-17T09:59:50.023Z,46.50
2023-06-17T10:00:49.984Z,50.36
2023-06-17T10:01:49.951Z,51.79
2023-06-17T10:02:50.025Z,51.16
2023-06-17T10:03:49.996Z,52.97
2023-06-17T10:04:49.847Z,54.51
2023-06-17T10:05:49.809Z,56.33
2023-06-17T10:06:49.770Z,56.27
2023-06-17T10:07:49.730Z,58.89
2023-06-17T10:08:49.705Z,60.62
2023-06-17T10:09:49.711Z,61.11
2023-06-17T10:10:49.685Z,63.80
2023-06-17T10:11:49.688Z,63.33
2023-06-17T10:12:49.634Z,64.55
2023-06-17T10:13:49.605Z,68.40
2023-06-17T10:14:49.578Z,68.81
2023-06-17T10:15:49.619Z,71.83
2023-06-17T10:16:49.592Z,73.46
2023-06-17T10:17:49.695Z,74.79
2023-06-17T10:18:49.557Z,74.89
2023-06-17T10:19:49.509Z,75.76
2023-06-17T10:20:49.490Z,77.72
2023-06-17T10:21:49.430Z,81.42
2023-06-17T10:22:49.401Z,86.06
2023-06-17T10:23:49.405Z,89.73
2023-06-17T10:24:49.352Z,90.86
2023-06-17T10:25:49.275Z,93.91
2023-06-17T10:26:51.129Z,93.70
2023-06-17T10:27:49.214Z,94.78
2023-06-17T10:28:49.193Z,99.00
2023-06-17T10:29:49.143Z,99.81
2023-06-17T10:30:49.119Z,101.46
2023-06-17T10:31:49.108Z,103.45
2023-06-17T10:32:50.981Z,103.33
2023-06-17T10:33:49.034Z,107.54
2023-06-17T10:34:48.968Z,109.02
2023-06-17T10:35:48.928Z,106.75
2023-06-17T10:36:48.915Z,111.08
2023-06-17T10:37:48.865Z,111.73
2023-06-17T10:38:50.525Z,114.26
2023-06-17T10:39:48.796Z,118.75
2023-06-17T10:40:48.811Z,116.90
2023-06-17T10:41:48.725Z,116.25
2023-06-17T10:42:48.708Z,121.60
2023-06-17T10:43:48.663Z,121.10
2023-06-17T10:44:50.141Z,123.59
2023-06-17T10:45:48.645Z,124.79
2023-06-17T10:46:48.539Z,124.20
2023-06-17T10:47:48.544Z,125.49
2023-06-17T10:48:48.529Z,125.87
2023-06-17T10:49:48.539Z,127.47
2023-06-17T10:50:50.965Z,127.93
2023-06-17T10:52:48.453Z,128.90
2023-06-17T10:53:48.428Z,129.80
2023-06-17T10:54:48.373Z,131.70
2023-06-17T10:55:48.334Z,135.33
2023-06-17T10:56:48.299Z,138.25
2023-06-17T10:57:48.254Z,141.49
2023-06-17T10:58:48.213Z,142.43
2023-06-17T10:59:48.171Z,143.84
2023-06-17T11:00:48.127Z,143.95
2023-06-17T11:01:49.582Z,144.59
2023-06-17T11:02:48.112Z,144.12
2023-06-17T11:03:48.012Z,144.67
2023-06-17T11:04:47.961Z,145.89
2023-06-17T11:05:47.922Z,148.73
2023-06-17T11:06:47.900Z,154.30
2023-06-17T11:07:47.858Z,152.88
2023-06-17T11:08:47.801Z,152.32
2023-06-17T11:09:47.837Z,151.40
2023-06-17T11:10:47.796Z,153.34
2023-06-17T11:11:47.652Z,155.17
2023-06-17T11:12:48.922Z,154.28
2023-06-17T11:13:47.568Z,156.30
2023-06-17T11:14:47.525Z,157.78
2023-06-17T11:15:47.477Z,160.04
2023-06-17T11:16:47.511Z,159.04
2023-06-17T11:17:47.424Z,156.85
2023-06-17T11:18:49.392Z,159.85
2023-06-17T11:19:47.311Z,160.01
2023-06-17T11:20:47.265Z,160.14
2023-06-17T11:21:47.234Z,160.22
2023-06-17T11:22:47.185Z,161.20
2023-06-17T11:23:47.142Z,163.33
2023-06-17T11:24:47.098Z,164.19
2023-06-17T11:25:47.057Z,164.39
2023-06-17T11:26:47.022Z,164.35
2023-06-17T11:27:46.976Z,165.54
2023-06-17T11:28:46.933Z,165.93
2023-06-17T11:29:46.880Z,165.73
2023-06-17T11:30:46.862Z,165.83
2023-06-17T11:31:46.821Z,166.78
2023-06-17T11:32:46.801Z,165.15
2023-06-17T11:33:46.739Z,163.74
2023-06-17T11:34:46.692Z,166.32
2023-06-17T11:35:46.621Z,163.42
2023-06-17T11:36:46.581Z,167.13
2023-06-17T11:37:46.537Z,165.92
2023-06-17T11:38:46.521Z,166.35
2023-06-17T11:39:46.460Z,166.45
2023-06-17T11:40:46.407Z,166.82
2023-06-17T11:41:46.366Z,168.32
2023-06-17T11:42:46.318Z,169.95
2023-06-17T11:43:46.285Z,169.76
2023-06-17T11:44:46.232Z,173.45
2023-06-17T11:45:46.198Z,170.07
2023-06-17T11:46:46.224Z,173.27
2023-06-17T11:47:46.169Z,171.15
2023-06-17T11:48:46.176Z,169.64
2023-06-17T11:49:46.177Z,172.11
2023-06-17T11:50:46.193Z,173.02
2023-06-17T11:51:46.204Z,172.45
2023-06-17T11:52:46.248Z,168.47
2023-06-17T11:53:46.265Z,170.83
2023-06-17T11:54:46.257Z,167.16
2023-06-17T11:55:46.288Z,171.45
2023-06-17T11:56:46.301Z,174.37
2023-06-17T11:57:46.330Z,168.89
2023-06-17T11:58:46.363Z,172.57
2023-06-17T11:59:46.352Z,171.98
2023-06-17T12:00:46.376Z,171.13
2023-06-17T12:01:46.420Z,169.29
2023-06-17T12:02:46.538Z,171.08
2023-06-17T12:03:46.448Z,167.46
2023-06-17T12:04:46.471Z,169.98
2023-06-17T12:05:46.483Z,167.77
2023-06-17T12:06:46.468Z,171.06
2023-06-17T12:07:46.500Z,170.33
2023-06-17T12:08:46.521Z,170.85
2023-06-17T12:09:46.528Z,171.29
2023-06-17T12:10:46.569Z,168.51
2023-06-17T12:11:46.568Z,168.56
2023-06-17T12:12:46.604Z,170.53
2023-06-17T12:13:46.616Z,168.20
2023-06-17T12:14:46.620Z,166.04
2023-06-17T12:15:46.647Z,167.27
2023-06-17T12:16:46.668Z,170.50
2023-06-17T12:17:46.833Z,168.04
2023-06-17T12:18:46.678Z,168.39
2023-06-17T12:19:46.689Z,167.83
2023-06-17T12:20:46.695Z,170.16
2023-06-17T12:21:46.696Z,165.65
2023-06-17T12:22:46.730Z,166.31
2023-06-17T12:23:46.900Z,164.71
2023-06-17T12:24:46.716Z,167.33
2023-06-17T12:25:46.717Z,165.45
2023-06-17T12:26:46.730Z,164.67
2023-06-17T12:27:46.740Z,165.60
2023-06-17T12:28:46.754Z,163.08
2023-06-17T12:29:47.024Z,163.81
2023-06-17T12:30:46.705Z,163.90
2023-06-17T12:31:46.654Z,164.30
2023-06-17T12:32:46.681Z,164.66
2023-06-17T12:33:46.567Z,164.70
2023-06-17T12:34:46.513Z,167.67
2023-06-17T12:35:46.461Z,167.83
2023-06-17T12:36:46.426Z,164.59
2023-06-17T12:37:46.373Z,164.59
2023-06-17T12:38:46.352Z,166.73
2023-06-17T12:39:46.294Z,164.25
2023-06-17T12:40:46.252Z,165.94
2023-06-17T12:41:46.253Z,166.88
2023-06-17T12:42:46.261Z,162.21
2023-06-17T12:44:46.261Z,162.55
2023-06-17T12:45:46.288Z,166.72
2023-06-17T12:46:46.261Z,164.03
2023-06-17T12:47:46.318Z,163.75
2023-06-17T12:48:46.301Z,160.85
2023-06-17T12:49:46.285Z,164.74
2023-06-17T12:50:46.287Z,160.72
2023-06-17T12:51:46.306Z,162.07
2023-06-17T12:52:46.308Z,158.54
2023-06-17T12:53:46.306Z,163.01
2023-06-17T12:54:46.333Z,160.07
2023-06-17T12:55:46.308Z,158.93
2023-06-17T12:56:46.348Z,158.14
2023-06-17T12:57:46.320Z,161.13
2023-06-17T12:58:46.324Z,156.36
2023-06-17T12:59:46.321Z,158.35
2023-06-17T13:00:46.331Z,155.57
2023-06-17T13:01:46.456Z,160.29
2023-06-17T13:02:46.361Z,157.94